This is the latest recevied weather packets stored in our database for station/object VE3MNX. If no packets are shown the sender has not sent any weather packets the latest 1 day(s).
| Time | Temp. | Humidity | Pressure | Rain* | Wind** | Luminosity | Snow |
|---|---|---|---|---|---|---|---|
| 1777969398 | 13.33° C | 91% | 999.3 hPa | 0 mm | 3.58 m/s, 266° | - | - |
| 1777968496 | 12.78° C | 92% | 999 hPa | 0 mm | 3.58 m/s, 255° | - | - |
| 1777967597 | 12.78° C | 92% | 998.8 hPa | 0 mm | 3.58 m/s, 265° | - | - |
| 1777966696 | 11.67° C | 94% | 999 hPa | 0 mm | 3.58 m/s, 267° | - | - |
| 1777965798 | 12.22° C | 94% | 998.6 hPa | 0 mm | 3.13 m/s, 241° | - | - |
| 1777964897 | 12.22° C | 94% | 999 hPa | 0 mm | 2.68 m/s, 267° | - | - |
| 1777963997 | 13.89° C | 90% | 998.6 hPa | 0 mm | 2.68 m/s, 250° | - | - |
| 1777963099 | 16.11° C | 83% | 999 hPa | 0 mm | 2.24 m/s, 304° | - | - |
| 1777962198 | 15.56° C | 85% | 999.3 hPa | 0 mm | 2.24 m/s, 286° | - | - |
| 1777961297 | 16.11° C | 83% | 999.7 hPa | 0 mm | 2.24 m/s, 222° | - | - |
| 1777960398 | 15.56° C | 83% | 999.7 hPa | 0 mm | 3.58 m/s, 252° | - | - |
| 1777959497 | 13.89° C | 85% | 1000 hPa | 0 mm | 6.26 m/s, 264° | - | - |
| 1777958598 | 12.78° C | 91% | 999.7 hPa | 0 mm | 4.02 m/s, 236° | - | - |
| 1777957696 | 12.22° C | 92% | 999.7 hPa | 0 mm | 4.02 m/s, 257° | - | - |
| 1777956797 | 12.22° C | 92% | 999.7 hPa | 0 mm | 3.58 m/s, 237° | - | - |
| 1777955896 | 12.22° C | 91% | 999.7 hPa | 0 mm | 3.58 m/s, 227° | - | - |
| 1777954997 | 12.78° C | 91% | 999.7 hPa | 0 mm | 4.02 m/s, 231° | - | - |
| 1777954099 | 12.22° C | 92% | 999.7 hPa | 0 mm | 0.89 m/s, 247° | - | - |
| 1777953196 | 12.22° C | 90% | 1000.3 hPa | 0 mm | 0.89 m/s, 271° | - | - |
| 1777952299 | 12.78° C | 88% | 1000.3 hPa | 0 mm | 2.24 m/s, 268° | - | - |
| 1777951397 | 12.22° C | 91% | 1000.7 hPa | 0 mm | 1.34 m/s, 244° | - | - |
* Rain latest hour (hover to see other rain measurements)
** Current wind speed in m/s (hover to see current wind gust speed)